sensor_id;sensor_type;location;lat;lon;timestamp;temperature;humidity
913;DHT22;443;51.448;7.028;2022-10-03T00:03:58;16.20;82.00
913;DHT22;443;51.448;7.028;2022-10-03T00:06:42;16.20;81.50
913;DHT22;443;51.448;7.028;2022-10-03T00:09:26;16.00;80.00
913;DHT22;443;51.448;7.028;2022-10-03T00:12:07;15.80;79.80
913;DHT22;443;51.448;7.028;2022-10-03T00:14:43;16.00;82.20
913;DHT22;443;51.448;7.028;2022-10-03T00:17:18;15.90;80.10
913;DHT22;443;51.448;7.028;2022-10-03T00:19:54;16.00;81.50
913;DHT22;443;51.448;7.028;2022-10-03T00:22:30;15.90;80.10
913;DHT22;443;51.448;7.028;2022-10-03T00:25:13;16.00;81.20
913;DHT22;443;51.448;7.028;2022-10-03T00:27:47;16.10;81.50
913;DHT22;443;51.448;7.028;2022-10-03T00:30:18;16.00;80.50
913;DHT22;443;51.448;7.028;2022-10-03T00:33:10;15.90;80.80
913;DHT22;443;51.448;7.028;2022-10-03T00:35:58;15.90;81.00
913;DHT22;443;51.448;7.028;2022-10-03T00:50:36;15.80;80.30
913;DHT22;443;51.448;7.028;2022-10-03T00:53:24;15.70;83.00
913;DHT22;443;51.448;7.028;2022-10-03T00:56:05;15.80;82.90
913;DHT22;443;51.448;7.028;2022-10-03T00:58:50;15.70;80.40
913;DHT22;443;51.448;7.028;2022-10-03T01:01:35;15.80;81.80
913;DHT22;443;51.448;7.028;2022-10-03T01:04:27;15.70;82.20
913;DHT22;443;51.448;7.028;2022-10-03T01:07:04;15.70;80.80
913;DHT22;443;51.448;7.028;2022-10-03T01:09:46;15.80;82.30
913;DHT22;443;51.448;7.028;2022-10-03T01:12:31;15.70;81.20
913;DHT22;443;51.448;7.028;2022-10-03T01:15:14;15.60;82.00
913;DHT22;443;51.448;7.028;2022-10-03T01:17:51;15.70;80.90
913;DHT22;443;51.448;7.028;2022-10-03T01:20:26;15.60;81.20
913;DHT22;443;51.448;7.028;2022-10-03T01:25:51;15.80;82.60
913;DHT22;443;51.448;7.028;2022-10-03T01:28:37;16.00;82.30
913;DHT22;443;51.448;7.028;2022-10-03T01:31:26;16.00;80.10
913;DHT22;443;51.448;7.028;2022-10-03T01:34:00;15.80;80.20
913;DHT22;443;51.448;7.028;2022-10-03T01:36:33;15.80;81.70
913;DHT22;443;51.448;7.028;2022-10-03T01:39:08;15.80;81.80
913;DHT22;443;51.448;7.028;2022-10-03T01:41:47;15.90;81.60
913;DHT22;443;51.448;7.028;2022-10-03T01:44:20;15.80;80.80
913;DHT22;443;51.448;7.028;2022-10-03T01:46:51;15.70;79.80
913;DHT22;443;51.448;7.028;2022-10-03T01:49:23;15.60;79.40
913;DHT22;443;51.448;7.028;2022-10-03T01:52:00;15.80;82.20
913;DHT22;443;51.448;7.028;2022-10-03T01:54:35;15.80;82.10
913;DHT22;443;51.448;7.028;2022-10-03T01:57:12;15.90;82.70
913;DHT22;443;51.448;7.028;2022-10-03T01:59:46;15.70;79.80
913;DHT22;443;51.448;7.028;2022-10-03T02:02:26;15.60;79.90
913;DHT22;443;51.448;7.028;2022-10-03T02:05:01;15.60;82.20
913;DHT22;443;51.448;7.028;2022-10-03T02:07:39;15.60;80.70
913;DHT22;443;51.448;7.028;2022-10-03T02:10:16;15.50;80.40
913;DHT22;443;51.448;7.028;2022-10-03T02:12:52;15.60;82.00
913;DHT22;443;51.448;7.028;2022-10-03T02:15:27;15.60;81.70
913;DHT22;443;51.448;7.028;2022-10-03T02:18:07;15.60;81.80
913;DHT22;443;51.448;7.028;2022-10-03T02:20:44;15.70;82.20
913;DHT22;443;51.448;7.028;2022-10-03T02:23:24;15.60;80.40
913;DHT22;443;51.448;7.028;2022-10-03T02:25:57;15.60;81.20
913;DHT22;443;51.448;7.028;2022-10-03T02:28:54;15.40;80.00
913;DHT22;443;51.448;7.028;2022-10-03T02:31:43;15.40;80.20
913;DHT22;443;51.448;7.028;2022-10-03T02:34:24;15.60;82.90
913;DHT22;443;51.448;7.028;2022-10-03T02:37:26;15.50;80.80
913;DHT22;443;51.448;7.028;2022-10-03T02:43:14;15.50;81.90
913;DHT22;443;51.448;7.028;2022-10-03T02:46:09;15.50;81.50
913;DHT22;443;51.448;7.028;2022-10-03T02:49:17;15.40;81.00
913;DHT22;443;51.448;7.028;2022-10-03T02:54:59;15.50;80.80
913;DHT22;443;51.448;7.028;2022-10-03T02:57:54;15.40;80.70
913;DHT22;443;51.448;7.028;2022-10-03T03:00:38;15.50;82.50
913;DHT22;443;51.448;7.028;2022-10-03T03:03:35;15.50;81.70
913;DHT22;443;51.448;7.028;2022-10-03T03:06:46;15.60;82.70
913;DHT22;443;51.448;7.028;2022-10-03T03:09:45;15.50;81.70
913;DHT22;443;51.448;7.028;2022-10-03T03:12:53;15.40;80.70
913;DHT22;443;51.448;7.028;2022-10-03T03:16:03;15.50;81.60
913;DHT22;443;51.448;7.028;2022-10-03T03:18:42;15.50;80.30
913;DHT22;443;51.448;7.028;2022-10-03T03:21:19;15.50;82.10
913;DHT22;443;51.448;7.028;2022-10-03T03:24:06;15.60;82.70
913;DHT22;443;51.448;7.028;2022-10-03T03:27:03;15.40;80.70
913;DHT22;443;51.448;7.028;2022-10-03T03:29:41;15.40;80.80
913;DHT22;443;51.448;7.028;2022-10-03T03:32:18;15.30;79.70
913;DHT22;443;51.448;7.028;2022-10-03T03:34:57;15.30;81.60
913;DHT22;443;51.448;7.028;2022-10-03T03:37:33;15.40;82.20
913;DHT22;443;51.448;7.028;2022-10-03T03:40:18;15.30;81.50
913;DHT22;443;51.448;7.028;2022-10-03T03:43:02;15.30;82.00
913;DHT22;443;51.448;7.028;2022-10-03T03:45:44;15.30;81.80
913;DHT22;443;51.448;7.028;2022-10-03T03:48:28;15.30;80.80
913;DHT22;443;51.448;7.028;2022-10-03T03:51:13;15.20;81.30
913;DHT22;443;51.448;7.028;2022-10-03T03:54:12;15.20;81.50
913;DHT22;443;51.448;7.028;2022-10-03T03:57:06;15.20;81.80
913;DHT22;443;51.448;7.028;2022-10-03T04:02:43;15.20;81.50
913;DHT22;443;51.448;7.028;2022-10-03T04:05:21;15.10;81.30
913;DHT22;443;51.448;7.028;2022-10-03T04:08:02;15.30;81.30
913;DHT22;443;51.448;7.028;2022-10-03T04:10:46;15.20;81.00
913;DHT22;443;51.448;7.028;2022-10-03T04:13:43;15.30;82.60
913;DHT22;443;51.448;7.028;2022-10-03T04:16:44;15.20;81.80
913;DHT22;443;51.448;7.028;2022-10-03T04:19:43;15.20;81.60
913;DHT22;443;51.448;7.028;2022-10-03T04:22:27;15.20;81.40
913;DHT22;443;51.448;7.028;2022-10-03T04:25:16;15.30;82.90
913;DHT22;443;51.448;7.028;2022-10-03T04:28:00;15.30;82.60
913;DHT22;443;51.448;7.028;2022-10-03T04:30:39;15.30;81.60
913;DHT22;443;51.448;7.028;2022-10-03T04:33:18;15.30;81.80
913;DHT22;443;51.448;7.028;2022-10-03T04:38:42;15.40;82.80
913;DHT22;443;51.448;7.028;2022-10-03T04:41:22;15.40;81.60
913;DHT22;443;51.448;7.028;2022-10-03T04:43:59;15.40;81.60
913;DHT22;443;51.448;7.028;2022-10-03T04:46:36;15.40;81.90
913;DHT22;443;51.448;7.028;2022-10-03T04:49:10;15.40;82.00
913;DHT22;443;51.448;7.028;2022-10-03T04:51:45;15.40;81.80
913;DHT22;443;51.448;7.028;2022-10-03T04:54:21;15.40;81.70
913;DHT22;443;51.448;7.028;2022-10-03T04:56:54;15.50;82.00
913;DHT22;443;51.448;7.028;2022-10-03T04:59:35;15.60;83.90
913;DHT22;443;51.448;7.028;2022-10-03T05:02:09;15.70;84.00
913;DHT22;443;51.448;7.028;2022-10-03T05:04:50;15.60;81.70
913;DHT22;443;51.448;7.028;2022-10-03T05:07:24;15.60;81.70
913;DHT22;443;51.448;7.028;2022-10-03T05:09:58;15.60;82.60
913;DHT22;443;51.448;7.028;2022-10-03T05:12:33;15.80;83.80
913;DHT22;443;51.448;7.028;2022-10-03T05:15:15;15.90;83.80
913;DHT22;443;51.448;7.028;2022-10-03T05:17:51;15.90;81.20
913;DHT22;443;51.448;7.028;2022-10-03T05:20:42;15.80;82.60
913;DHT22;443;51.448;7.028;2022-10-03T05:23:24;15.80;81.80
913;DHT22;443;51.448;7.028;2022-10-03T05:26:00;15.90;82.30
913;DHT22;443;51.448;7.028;2022-10-03T05:28:36;15.70;82.10
913;DHT22;443;51.448;7.028;2022-10-03T05:31:15;15.70;80.90
913;DHT22;443;51.448;7.028;2022-10-03T05:33:53;15.70;81.30
913;DHT22;443;51.448;7.028;2022-10-03T05:36:32;15.60;82.50
913;DHT22;443;51.448;7.028;2022-10-03T05:39:25;15.60;82.00
913;DHT22;443;51.448;7.028;2022-10-03T05:41:53;15.60;81.90
913;DHT22;443;51.448;7.028;2022-10-03T05:44:31;15.60;81.30
913;DHT22;443;51.448;7.028;2022-10-03T05:47:06;15.60;82.00
913;DHT22;443;51.448;7.028;2022-10-03T05:50:14;15.60;81.70
913;DHT22;443;51.448;7.028;2022-10-03T05:53:00;15.60;82.00
913;DHT22;443;51.448;7.028;2022-10-03T05:55:45;15.60;81.30
913;DHT22;443;51.448;7.028;2022-10-03T05:58:33;15.60;82.90
913;DHT22;443;51.448;7.028;2022-10-03T06:01:25;15.70;82.90
913;DHT22;443;51.448;7.028;2022-10-03T06:04:07;15.60;81.70
913;DHT22;443;51.448;7.028;2022-10-03T06:06:50;15.60;82.30
913;DHT22;443;51.448;7.028;2022-10-03T06:09:38;15.70;81.30
913;DHT22;443;51.448;7.028;2022-10-03T06:12:09;15.70;82.10
913;DHT22;443;51.448;7.028;2022-10-03T06:17:59;15.70;82.30
913;DHT22;443;51.448;7.028;2022-10-03T06:21:05;15.70;81.60
913;DHT22;443;51.448;7.028;2022-10-03T06:24:09;15.60;80.70
913;DHT22;443;51.448;7.028;2022-10-03T06:27:08;15.60;81.20
913;DHT22;443;51.448;7.028;2022-10-03T06:30:09;15.70;81.60
913;DHT22;443;51.448;7.028;2022-10-03T06:39:28;15.70;81.80
913;DHT22;443;51.448;7.028;2022-10-03T06:48:43;15.80;82.20
913;DHT22;443;51.448;7.028;2022-10-03T06:51:39;15.90;83.00
913;DHT22;443;51.448;7.028;2022-10-03T06:54:35;15.90;83.20
913;DHT22;443;51.448;7.028;2022-10-03T06:57:27;15.90;82.10
913;DHT22;443;51.448;7.028;2022-10-03T07:00:11;15.80;81.50
913;DHT22;443;51.448;7.028;2022-10-03T07:03:07;15.80;81.90
913;DHT22;443;51.448;7.028;2022-10-03T07:09:03;15.80;82.10
913;DHT22;443;51.448;7.028;2022-10-03T07:12:05;15.80;81.20
913;DHT22;443;51.448;7.028;2022-10-03T07:17:56;15.80;81.70
913;DHT22;443;51.448;7.028;2022-10-03T07:23:30;16.00;82.10
913;DHT22;443;51.448;7.028;2022-10-03T07:29:26;16.00;82.00
913;DHT22;443;51.448;7.028;2022-10-03T07:32:22;16.00;81.40
913;DHT22;443;51.448;7.028;2022-10-03T07:39:04;16.10;81.70
913;DHT22;443;51.448;7.028;2022-10-03T07:41:50;16.10;82.60
913;DHT22;443;51.448;7.028;2022-10-03T07:45:00;16.10;81.80
913;DHT22;443;51.448;7.028;2022-10-03T07:48:00;16.00;81.10
913;DHT22;443;51.448;7.028;2022-10-03T07:50:56;16.00;81.30
913;DHT22;443;51.448;7.028;2022-10-03T07:56:45;16.00;79.80
913;DHT22;443;51.448;7.028;2022-10-03T07:59:42;16.00;82.40
913;DHT22;443;51.448;7.028;2022-10-03T08:02:31;16.10;79.60
913;DHT22;443;51.448;7.028;2022-10-03T08:05:15;16.10;80.90
913;DHT22;443;51.448;7.028;2022-10-03T08:08:06;16.10;81.70
913;DHT22;443;51.448;7.028;2022-10-03T08:11:08;16.10;82.00
913;DHT22;443;51.448;7.028;2022-10-03T08:13:53;16.10;79.80
913;DHT22;443;51.448;7.028;2022-10-03T08:16:50;16.20;80.40
913;DHT22;443;51.448;7.028;2022-10-03T08:19:40;16.20;79.40
913;DHT22;443;51.448;7.028;2022-10-03T08:22:24;16.20;81.50
913;DHT22;443;51.448;7.028;2022-10-03T08:25:15;16.20;81.50
913;DHT22;443;51.448;7.028;2022-10-03T08:27:57;16.20;80.80
913;DHT22;443;51.448;7.028;2022-10-03T08:30:37;16.30;82.50
913;DHT22;443;51.448;7.028;2022-10-03T08:33:34;16.40;82.80
913;DHT22;443;51.448;7.028;2022-10-03T08:39:13;16.40;81.70
913;DHT22;443;51.448;7.028;2022-10-03T08:42:17;16.30;80.90
913;DHT22;443;51.448;7.028;2022-10-03T08:48:18;16.50;82.60
913;DHT22;443;51.448;7.028;2022-10-03T08:51:04;16.60;81.30
913;DHT22;443;51.448;7.028;2022-10-03T08:54:00;16.50;79.90
913;DHT22;443;51.448;7.028;2022-10-03T08:59:43;16.50;80.60
913;DHT22;443;51.448;7.028;2022-10-03T09:05:56;16.70;80.50
913;DHT22;443;51.448;7.028;2022-10-03T09:08:53;16.60;79.80
913;DHT22;443;51.448;7.028;2022-10-03T09:11:57;16.70;80.40
913;DHT22;443;51.448;7.028;2022-10-03T09:14:53;16.70;81.60
913;DHT22;443;51.448;7.028;2022-10-03T09:36:04;16.90;80.20
913;DHT22;443;51.448;7.028;2022-10-03T09:38:45;17.00;81.20
913;DHT22;443;51.448;7.028;2022-10-03T09:41:43;17.10;80.90
913;DHT22;443;51.448;7.028;2022-10-03T09:50:53;17.10;79.70
913;DHT22;443;51.448;7.028;2022-10-03T09:57:00;17.30;80.60
913;DHT22;443;51.448;7.028;2022-10-03T09:59:51;17.20;79.10
913;DHT22;443;51.448;7.028;2022-10-03T10:08:54;17.20;79.50
913;DHT22;443;51.448;7.028;2022-10-03T10:11:35;17.30;80.40
913;DHT22;443;51.448;7.028;2022-10-03T10:14:27;17.30;80.20
913;DHT22;443;51.448;7.028;2022-10-03T10:20:23;17.30;80.20
913;DHT22;443;51.448;7.028;2022-10-03T10:23:22;17.20;79.30
913;DHT22;443;51.448;7.028;2022-10-03T10:26:28;17.20;79.80
913;DHT22;443;51.448;7.028;2022-10-03T10:29:31;17.30;80.10
913;DHT22;443;51.448;7.028;2022-10-03T10:35:37;17.30;77.40
913;DHT22;443;51.448;7.028;2022-10-03T10:38:23;17.30;79.70
913;DHT22;443;51.448;7.028;2022-10-03T10:44:44;17.30;78.40
913;DHT22;443;51.448;7.028;2022-10-03T10:57:01;17.40;79.20
913;DHT22;443;51.448;7.028;2022-10-03T11:06:00;17.50;77.20
913;DHT22;443;51.448;7.028;2022-10-03T11:09:05;17.50;78.10
913;DHT22;443;51.448;7.028;2022-10-03T11:12:20;17.50;79.30
913;DHT22;443;51.448;7.028;2022-10-03T11:15:33;17.50;78.90
913;DHT22;443;51.448;7.028;2022-10-03T11:21:44;17.50;79.30
913;DHT22;443;51.448;7.028;2022-10-03T11:24:42;17.50;79.40
913;DHT22;443;51.448;7.028;2022-10-03T11:27:55;17.50;79.90
913;DHT22;443;51.448;7.028;2022-10-03T11:31:04;17.50;79.20
913;DHT22;443;51.448;7.028;2022-10-03T11:37:04;17.50;77.50
913;DHT22;443;51.448;7.028;2022-10-03T11:39:40;17.50;77.60
913;DHT22;443;51.448;7.028;2022-10-03T11:42:20;17.50;78.90
913;DHT22;443;51.448;7.028;2022-10-03T11:44:55;17.60;78.20
913;DHT22;443;51.448;7.028;2022-10-03T11:47:39;17.50;78.80
913;DHT22;443;51.448;7.028;2022-10-03T11:50:40;17.60;78.70
913;DHT22;443;51.448;7.028;2022-10-03T11:53:20;17.60;76.80
913;DHT22;443;51.448;7.028;2022-10-03T11:55:52;17.70;76.40
913;DHT22;443;51.448;7.028;2022-10-03T11:58:39;17.60;74.60
913;DHT22;443;51.448;7.028;2022-10-03T12:01:31;17.70;77.10
913;DHT22;443;51.448;7.028;2022-10-03T12:04:12;17.60;78.20
913;DHT22;443;51.448;7.028;2022-10-03T12:06:52;17.60;78.70
913;DHT22;443;51.448;7.028;2022-10-03T12:09:57;17.60;78.90
913;DHT22;443;51.448;7.028;2022-10-03T12:12:33;17.60;79.00
913;DHT22;443;51.448;7.028;2022-10-03T12:15:11;17.50;79.00
913;DHT22;443;51.448;7.028;2022-10-03T12:17:46;17.50;78.90
913;DHT22;443;51.448;7.028;2022-10-03T12:20:19;17.60;79.00
913;DHT22;443;51.448;7.028;2022-10-03T12:22:50;17.50;78.90
913;DHT22;443;51.448;7.028;2022-10-03T12:25:21;17.60;78.90
913;DHT22;443;51.448;7.028;2022-10-03T12:28:00;17.60;78.40
913;DHT22;443;51.448;7.028;2022-10-03T12:30:39;17.70;78.50
913;DHT22;443;51.448;7.028;2022-10-03T12:33:36;17.70;77.90
913;DHT22;443;51.448;7.028;2022-10-03T12:36:10;17.60;78.50
913;DHT22;443;51.448;7.028;2022-10-03T12:38:50;17.70;78.60
913;DHT22;443;51.448;7.028;2022-10-03T12:41:26;17.70;77.30
913;DHT22;443;51.448;7.028;2022-10-03T12:44:15;17.70;77.60
913;DHT22;443;51.448;7.028;2022-10-03T12:46:52;17.60;78.60
913;DHT22;443;51.448;7.028;2022-10-03T12:49:33;17.60;78.70
913;DHT22;443;51.448;7.028;2022-10-03T12:52:15;17.60;78.70
913;DHT22;443;51.448;7.028;2022-10-03T12:54:49;17.60;79.20
913;DHT22;443;51.448;7.028;2022-10-03T12:57:44;17.70;78.90
913;DHT22;443;51.448;7.028;2022-10-03T13:00:19;17.60;78.70
913;DHT22;443;51.448;7.028;2022-10-03T13:02:58;17.70;78.80
913;DHT22;443;51.448;7.028;2022-10-03T13:05:34;17.60;78.50
913;DHT22;443;51.448;7.028;2022-10-03T13:08:15;17.70;78.60
913;DHT22;443;51.448;7.028;2022-10-03T13:10:49;17.70;78.30
913;DHT22;443;51.448;7.028;2022-10-03T13:13:23;17.80;77.70
913;DHT22;443;51.448;7.028;2022-10-03T13:18:58;17.80;78.20
913;DHT22;443;51.448;7.028;2022-10-03T13:21:43;17.80;78.10
913;DHT22;443;51.448;7.028;2022-10-03T13:24:21;17.70;78.30
913;DHT22;443;51.448;7.028;2022-10-03T13:27:01;17.70;78.30
913;DHT22;443;51.448;7.028;2022-10-03T13:29:34;17.70;78.40
913;DHT22;443;51.448;7.028;2022-10-03T13:32:10;17.70;78.50
913;DHT22;443;51.448;7.028;2022-10-03T13:35:01;17.80;78.40
913;DHT22;443;51.448;7.028;2022-10-03T13:40:52;17.70;78.30
913;DHT22;443;51.448;7.028;2022-10-03T13:43:24;17.70;78.40
913;DHT22;443;51.448;7.028;2022-10-03T13:45:53;17.70;78.60
913;DHT22;443;51.448;7.028;2022-10-03T13:48:24;17.70;78.50
913;DHT22;443;51.448;7.028;2022-10-03T13:50:56;17.70;78.50
913;DHT22;443;51.448;7.028;2022-10-03T13:53:41;17.70;78.40
913;DHT22;443;51.448;7.028;2022-10-03T13:56:15;17.70;78.30
913;DHT22;443;51.448;7.028;2022-10-03T13:58:52;17.80;78.10
913;DHT22;443;51.448;7.028;2022-10-03T14:01:32;18.00;77.80
913;DHT22;443;51.448;7.028;2022-10-03T14:04:22;17.90;77.60
913;DHT22;443;51.448;7.028;2022-10-03T14:06:58;17.90;77.70
913;DHT22;443;51.448;7.028;2022-10-03T14:09:37;17.90;77.70
913;DHT22;443;51.448;7.028;2022-10-03T14:12:17;17.90;77.80
913;DHT22;443;51.448;7.028;2022-10-03T14:15:00;17.90;77.70
913;DHT22;443;51.448;7.028;2022-10-03T14:17:38;17.90;77.70
913;DHT22;443;51.448;7.028;2022-10-03T14:20:22;17.90;77.80
913;DHT22;443;51.448;7.028;2022-10-03T14:23:09;17.90;77.90
913;DHT22;443;51.448;7.028;2022-10-03T14:25:43;17.80;77.90
913;DHT22;443;51.448;7.028;2022-10-03T14:28:18;17.80;77.90
913;DHT22;443;51.448;7.028;2022-10-03T14:30:58;17.80;77.80
913;DHT22;443;51.448;7.028;2022-10-03T14:33:32;17.80;77.90
913;DHT22;443;51.448;7.028;2022-10-03T14:36:16;17.80;78.00
913;DHT22;443;51.448;7.028;2022-10-03T14:39:00;17.80;78.00
913;DHT22;443;51.448;7.028;2022-10-03T14:41:43;17.80;78.00
913;DHT22;443;51.448;7.028;2022-10-03T14:44:16;17.80;78.00
913;DHT22;443;51.448;7.028;2022-10-03T14:46:49;17.80;78.00
913;DHT22;443;51.448;7.028;2022-10-03T14:49:19;17.80;78.10
913;DHT22;443;51.448;7.028;2022-10-03T14:51:51;17.80;78.00
913;DHT22;443;51.448;7.028;2022-10-03T14:54:23;17.80;78.10
913;DHT22;443;51.448;7.028;2022-10-03T14:56:52;17.80;78.10
913;DHT22;443;51.448;7.028;2022-10-03T14:59:26;17.80;78.10
913;DHT22;443;51.448;7.028;2022-10-03T15:01:56;17.80;78.00
913;DHT22;443;51.448;7.028;2022-10-03T15:04:27;17.80;78.10
913;DHT22;443;51.448;7.028;2022-10-03T15:06:56;17.80;78.10
913;DHT22;443;51.448;7.028;2022-10-03T15:09:30;17.90;77.90
913;DHT22;443;51.448;7.028;2022-10-03T15:12:02;17.90;77.70
913;DHT22;443;51.448;7.028;2022-10-03T15:14:34;17.90;77.60
913;DHT22;443;51.448;7.028;2022-10-03T15:17:06;17.90;77.40
913;DHT22;443;51.448;7.028;2022-10-03T15:19:44;18.00;77.40
913;DHT22;443;51.448;7.028;2022-10-03T15:22:22;18.00;77.50
913;DHT22;443;51.448;7.028;2022-10-03T15:24:53;18.00;77.30
913;DHT22;443;51.448;7.028;2022-10-03T15:27:21;18.00;77.30
913;DHT22;443;51.448;7.028;2022-10-03T15:29:53;18.00;77.30
913;DHT22;443;51.448;7.028;2022-10-03T15:32:25;18.00;77.40
913;DHT22;443;51.448;7.028;2022-10-03T15:34:56;17.90;77.40
913;DHT22;443;51.448;7.028;2022-10-03T15:37:27;17.90;77.50
913;DHT22;443;51.448;7.028;2022-10-03T15:39:59;17.90;77.60
913;DHT22;443;51.448;7.028;2022-10-03T15:42:29;17.90;77.70
913;DHT22;443;51.448;7.028;2022-10-03T15:45:00;17.90;77.60
913;DHT22;443;51.448;7.028;2022-10-03T15:47:31;17.90;77.70
913;DHT22;443;51.448;7.028;2022-10-03T15:50:02;17.90;77.80
913;DHT22;443;51.448;7.028;2022-10-03T15:52:35;17.90;77.80
913;DHT22;443;51.448;7.028;2022-10-03T15:55:12;17.90;77.80
913;DHT22;443;51.448;7.028;2022-10-03T15:57:44;17.90;77.90
913;DHT22;443;51.448;7.028;2022-10-03T16:00:20;17.90;77.90
913;DHT22;443;51.448;7.028;2022-10-03T16:02:55;17.90;77.90
913;DHT22;443;51.448;7.028;2022-10-03T16:05:26;17.90;77.90
913;DHT22;443;51.448;7.028;2022-10-03T16:07:57;17.90;77.90
913;DHT22;443;51.448;7.028;2022-10-03T16:10:27;17.80;77.80
913;DHT22;443;51.448;7.028;2022-10-03T16:13:03;17.90;77.90
913;DHT22;443;51.448;7.028;2022-10-03T16:16:03;17.90;78.00
913;DHT22;443;51.448;7.028;2022-10-03T16:18:43;17.80;77.90
913;DHT22;443;51.448;7.028;2022-10-03T16:21:18;17.80;78.00
913;DHT22;443;51.448;7.028;2022-10-03T16:23:51;17.80;78.00
913;DHT22;443;51.448;7.028;2022-10-03T16:26:22;17.80;78.10
913;DHT22;443;51.448;7.028;2022-10-03T16:29:01;17.80;78.10
913;DHT22;443;51.448;7.028;2022-10-03T16:31:37;17.80;78.20
913;DHT22;443;51.448;7.028;2022-10-03T16:34:11;17.80;78.20
913;DHT22;443;51.448;7.028;2022-10-03T16:36:41;17.80;78.30
913;DHT22;443;51.448;7.028;2022-10-03T16:39:17;17.80;78.30
913;DHT22;443;51.448;7.028;2022-10-03T16:41:46;17.80;78.30
913;DHT22;443;51.448;7.028;2022-10-03T16:44:19;17.80;78.30
913;DHT22;443;51.448;7.028;2022-10-03T16:46:49;17.80;78.30
913;DHT22;443;51.448;7.028;2022-10-03T16:49:33;17.80;78.40
913;DHT22;443;51.448;7.028;2022-10-03T16:52:23;17.80;78.50
913;DHT22;443;51.448;7.028;2022-10-03T16:54:58;17.80;78.60
913;DHT22;443;51.448;7.028;2022-10-03T16:57:30;17.80;78.60
913;DHT22;443;51.448;7.028;2022-10-03T16:59:58;17.80;78.60
913;DHT22;443;51.448;7.028;2022-10-03T17:02:33;17.70;78.50
913;DHT22;443;51.448;7.028;2022-10-03T17:05:03;17.70;78.60
913;DHT22;443;51.448;7.028;2022-10-03T17:07:37;17.70;78.80
913;DHT22;443;51.448;7.028;2022-10-03T17:10:22;17.70;78.70
913;DHT22;443;51.448;7.028;2022-10-03T17:12:50;17.70;78.70
913;DHT22;443;51.448;7.028;2022-10-03T17:15:20;17.70;78.80
913;DHT22;443;51.448;7.028;2022-10-03T17:17:52;17.70;78.90
913;DHT22;443;51.448;7.028;2022-10-03T17:20:35;17.70;78.90
913;DHT22;443;51.448;7.028;2022-10-03T17:23:09;17.70;79.00
913;DHT22;443;51.448;7.028;2022-10-03T17:25:42;17.60;78.90
913;DHT22;443;51.448;7.028;2022-10-03T17:28:17;17.70;79.80
913;DHT22;443;51.448;7.028;2022-10-03T17:30:49;17.60;79.10
913;DHT22;443;51.448;7.028;2022-10-03T17:33:21;17.60;79.10
913;DHT22;443;51.448;7.028;2022-10-03T17:35:55;17.60;79.00
913;DHT22;443;51.448;7.028;2022-10-03T17:38:46;17.60;79.10
913;DHT22;443;51.448;7.028;2022-10-03T17:41:20;17.60;79.20
913;DHT22;443;51.448;7.028;2022-10-03T17:43:57;17.60;79.30
913;DHT22;443;51.448;7.028;2022-10-03T17:46:32;17.60;79.30
913;DHT22;443;51.448;7.028;2022-10-03T17:49:09;17.60;79.30
913;DHT22;443;51.448;7.028;2022-10-03T17:51:44;17.50;79.30
913;DHT22;443;51.448;7.028;2022-10-03T17:54:15;17.50;79.30
913;DHT22;443;51.448;7.028;2022-10-03T17:56:47;17.50;79.40
913;DHT22;443;51.448;7.028;2022-10-03T17:59:20;17.50;79.50
913;DHT22;443;51.448;7.028;2022-10-03T18:01:50;17.50;79.50
913;DHT22;443;51.448;7.028;2022-10-03T18:04:20;17.50;79.60
913;DHT22;443;51.448;7.028;2022-10-03T18:06:55;17.50;79.60
913;DHT22;443;51.448;7.028;2022-10-03T18:09:27;17.50;79.60
913;DHT22;443;51.448;7.028;2022-10-03T18:12:01;17.40;79.60
913;DHT22;443;51.448;7.028;2022-10-03T18:14:41;17.40;80.00
913;DHT22;443;51.448;7.028;2022-10-03T18:17:15;17.40;79.70
913;DHT22;443;51.448;7.028;2022-10-03T18:20:09;17.40;79.80
913;DHT22;443;51.448;7.028;2022-10-03T18:22:46;17.40;79.70
913;DHT22;443;51.448;7.028;2022-10-03T18:25:19;17.40;79.90
913;DHT22;443;51.448;7.028;2022-10-03T18:28:16;17.30;79.90
913;DHT22;443;51.448;7.028;2022-10-03T18:30:49;17.30;80.00
913;DHT22;443;51.448;7.028;2022-10-03T18:33:19;17.30;80.00
913;DHT22;443;51.448;7.028;2022-10-03T18:35:48;17.30;80.10
913;DHT22;443;51.448;7.028;2022-10-03T18:38:19;17.30;80.00
913;DHT22;443;51.448;7.028;2022-10-03T18:40:53;17.30;80.00
913;DHT22;443;51.448;7.028;2022-10-03T18:43:33;17.20;80.00
913;DHT22;443;51.448;7.028;2022-10-03T18:46:09;17.20;80.10
913;DHT22;443;51.448;7.028;2022-10-03T18:48:47;17.20;80.40
913;DHT22;443;51.448;7.028;2022-10-03T18:51:24;17.20;80.10
913;DHT22;443;51.448;7.028;2022-10-03T18:53:57;17.20;80.30
913;DHT22;443;51.448;7.028;2022-10-03T18:56:26;17.20;80.30
913;DHT22;443;51.448;7.028;2022-10-03T18:59:14;17.20;80.50
913;DHT22;443;51.448;7.028;2022-10-03T19:01:49;17.20;80.50
913;DHT22;443;51.448;7.028;2022-10-03T19:04:31;17.20;80.20
913;DHT22;443;51.448;7.028;2022-10-03T19:07:01;17.10;80.40
913;DHT22;443;51.448;7.028;2022-10-03T19:09:34;17.10;80.70
913;DHT22;443;51.448;7.028;2022-10-03T19:12:09;17.10;80.50
913;DHT22;443;51.448;7.028;2022-10-03T19:14:41;17.10;80.70
913;DHT22;443;51.448;7.028;2022-10-03T19:17:21;17.10;80.50
913;DHT22;443;51.448;7.028;2022-10-03T19:19:52;17.10;80.50
913;DHT22;443;51.448;7.028;2022-10-03T19:22:27;17.10;80.60
913;DHT22;443;51.448;7.028;2022-10-03T19:24:57;17.10;80.70
913;DHT22;443;51.448;7.028;2022-10-03T19:27:39;17.10;80.80
913;DHT22;443;51.448;7.028;2022-10-03T19:30:07;17.10;80.80
913;DHT22;443;51.448;7.028;2022-10-03T19:32:48;17.10;80.90
913;DHT22;443;51.448;7.028;2022-10-03T19:35:17;17.10;80.90
913;DHT22;443;51.448;7.028;2022-10-03T19:37:49;17.00;80.50
913;DHT22;443;51.448;7.028;2022-10-03T19:40:29;17.10;81.10
913;DHT22;443;51.448;7.028;2022-10-03T19:43:05;17.10;80.60
913;DHT22;443;51.448;7.028;2022-10-03T19:45:32;17.10;81.00
913;DHT22;443;51.448;7.028;2022-10-03T19:48:05;17.10;81.00
913;DHT22;443;51.448;7.028;2022-10-03T19:50:37;17.10;81.10
913;DHT22;443;51.448;7.028;2022-10-03T19:53:10;17.10;81.10
913;DHT22;443;51.448;7.028;2022-10-03T19:55:40;17.10;80.50
913;DHT22;443;51.448;7.028;2022-10-03T19:58:13;17.10;80.90
913;DHT22;443;51.448;7.028;2022-10-03T20:00:49;17.10;81.00
913;DHT22;443;51.448;7.028;2022-10-03T20:03:18;17.00;80.90
913;DHT22;443;51.448;7.028;2022-10-03T20:05:55;17.00;80.90
913;DHT22;443;51.448;7.028;2022-10-03T20:08:31;17.00;81.10
913;DHT22;443;51.448;7.028;2022-10-03T20:11:11;17.00;81.10
913;DHT22;443;51.448;7.028;2022-10-03T20:13:43;17.00;80.90
913;DHT22;443;51.448;7.028;2022-10-03T20:16:14;17.00;80.80
913;DHT22;443;51.448;7.028;2022-10-03T20:18:41;17.00;80.80
913;DHT22;443;51.448;7.028;2022-10-03T20:21:10;17.00;81.20
913;DHT22;443;51.448;7.028;2022-10-03T20:23:40;16.90;80.70
913;DHT22;443;51.448;7.028;2022-10-03T20:26:15;16.90;81.20
913;DHT22;443;51.448;7.028;2022-10-03T20:28:57;16.90;80.90
913;DHT22;443;51.448;7.028;2022-10-03T20:31:27;16.80;80.00
913;DHT22;443;51.448;7.028;2022-10-03T20:33:58;16.70;80.20
913;DHT22;443;51.448;7.028;2022-10-03T20:36:28;16.80;81.10